Time;durP1;ratioP1;P1;durP2;ratioP2;P2;SDS_P1;SDS_P2;PMS_P1;PMS_P2;Temp;Humidity;BMP_temperature;BMP_pressure;BME280_temperature;BME280_humidity;BME280_pressure;Samples;Min_cycle;Max_cycle;Signal;HPM_P1;HPM_P2
2021/11/11 00:00:34;;;;;;;23.47;13.53;;;;;;;1.34;59.31;142600.83;1835027;77;22124;-63
2021/11/11 00:03:29;;;;;;;25.40;13.83;;;;;;;1.32;59.43;142595.84;1819412;77;38325;-62
2021/11/11 00:06:24;;;;;;;24.55;12.65;;;;;;;1.33;59.61;142598.36;1834724;77;22603;-61
2021/11/11 00:08:59;;;;;;;22.35;11.28;;;;;;;1.27;59.69;142584.69;1835011;77;22124;-62
2021/11/11 00:11:55;;;;;;;18.77;10.08;;;;;;;1.26;59.83;142580.92;1834950;77;22132;-62
2021/11/11 00:14:31;;;;;;;22.00;11.48;;;;;;;1.24;59.98;142575.94;1834911;77;22606;-62
2021/11/11 00:17:31;;;;;;;24.60;11.78;;;;;;;1.22;60.20;142570.95;1834059;77;22603;-61
2021/11/11 00:20:09;;;;;;;26.65;11.28;;;;;;;1.20;60.37;142566.02;1853571;77;22558;-61
2021/11/11 00:22:46;;;;;;;22.70;11.78;;;;;;;1.17;60.52;142558.52;1834948;77;22211;-61
2021/11/11 00:25:25;;;;;;;22.20;12.00;;;;;;;1.15;60.61;142553.58;1837824;77;27999;-61
2021/11/11 00:28:00;;;;;;;23.52;11.48;;;;;;;1.20;60.68;142567.25;1834989;77;22591;-62
2021/11/11 00:30:36;;;;;;;21.00;12.30;;;;;;;1.17;60.76;142559.80;1819410;77;28434;-61
2021/11/11 00:33:10;;;;;;;22.52;12.33;;;;;;;1.22;60.86;142570.95;1853541;77;22124;-62
2021/11/11 00:36:10;;;;;;;19.90;11.12;;;;;;;1.20;60.93;142566.02;1834175;77;22602;-63
2021/11/11 00:38:46;;;;;;;24.75;11.40;;;;;;;1.17;61.03;142558.52;1834995;77;22559;-62
2021/11/11 00:41:21;;;;;;;21.05;12.58;;;;;;;1.17;61.06;142558.52;1819418;77;28422;-62
2021/11/11 00:43:56;;;;;;;24.40;10.95;;;;;;;1.24;61.04;142575.94;1835035;77;22544;-61
2021/11/11 00:46:37;;;;;;;28.15;11.97;;;;;;;1.22;61.08;142572.23;1834164;77;22176;-63
2021/11/11 00:49:12;;;;;;;21.82;11.08;;;;;;;1.20;61.23;142567.25;1835008;77;22603;-61
2021/11/11 00:51:47;;;;;;;22.95;11.85;;;;;;;1.19;61.26;142563.50;1835007;77;22543;-62
2021/11/11 00:54:47;;;;;;;22.13;9.88;;;;;;;1.20;61.39;142566.02;1853441;77;22205;-62
2021/11/11 00:57:43;;;;;;;20.25;10.48;;;;;;;1.20;61.46;142566.02;1834929;77;22157;-61
2021/11/11 01:00:21;;;;;;;19.77;9.65;;;;;;;1.17;61.59;142559.80;1834990;77;22159;-63
2021/11/11 01:03:04;;;;;;;19.12;10.28;;;;;;;1.17;61.64;142559.80;1834135;77;22157;-61
2021/11/11 01:05:39;;;;;;;16.20;9.93;;;;;;;1.15;61.79;142553.58;1835006;77;22132;-61
2021/11/11 01:08:14;;;;;;;18.40;9.43;;;;;;;1.14;61.85;142551.06;1853548;77;22151;-63
2021/11/11 01:10:49;;;;;;;18.23;9.40;;;;;;;1.13;61.92;142549.81;1853534;77;22547;-63
2021/11/11 01:13:24;;;;;;;19.45;10.45;;;;;;;1.13;62.03;142548.59;1835010;77;22128;-61
2021/11/11 01:16:00;;;;;;;22.75;10.75;;;;;;;1.13;62.10;142548.59;1853629;77;22127;-63
2021/11/11 01:18:43;;;;;;;20.72;10.05;;;;;;;1.13;62.10;142548.59;1853547;77;22202;-63
2021/11/11 01:21:38;;;;;;;24.00;10.55;;;;;;;1.13;62.22;142548.59;1853568;77;22127;-61
2021/11/11 01:24:33;;;;;;;17.75;9.93;;;;;;;1.11;62.30;142543.59;1853544;77;22127;-63
2021/11/11 01:27:07;;;;;;;20.17;11.20;;;;;;;1.10;62.38;142541.12;1837904;77;27992;-62
2021/11/11 01:29:43;;;;;;;17.62;10.43;;;;;;;1.16;62.37;142556.05;1853565;77;22124;-63
2021/11/11 01:32:44;;;;;;;17.62;9.85;;;;;;;1.17;62.30;142558.52;1834113;77;22619;-64
2021/11/11 01:35:41;;;;;;;17.85;10.25;;;;;;;1.16;61.93;142556.05;1819356;77;28002;-63
2021/11/11 01:38:36;;;;;;;18.15;9.25;;;;;;;1.21;62.32;142568.48;1834936;77;22550;-61
2021/11/11 01:41:18;;;;;;;16.48;9.68;;;;;;;1.18;62.37;142561.03;1834173;77;22578;-67
2021/11/11 01:44:14;;;;;;;25.30;10.40;;;;;;;1.19;62.35;142564.73;1834995;77;22551;-61
2021/11/11 01:46:49;;;;;;;26.30;10.50;;;;;;;1.20;62.43;142566.02;1853557;77;22120;-61
2021/11/11 01:49:24;;;;;;;18.87;9.48;;;;;;;1.20;62.43;142566.02;1835029;77;22128;-62
2021/11/11 01:51:59;;;;;;;18.57;9.98;;;;;;;1.18;62.48;142562.27;1835005;77;22132;-62
2021/11/11 01:54:41;;;;;;;19.62;9.78;;;;;;;1.20;62.46;142567.25;1834163;77;22152;-63
2021/11/11 01:57:16;;;;;;;21.15;10.98;;;;;;;1.20;62.51;142566.02;1819415;77;28009;-63
2021/11/11 01:59:52;;;;;;;22.37;10.38;;;;;;;1.24;62.49;142575.94;1853548;77;22132;-61
2021/11/11 02:02:29;;;;;;;16.05;9.75;;;;;;;1.24;62.44;142575.94;1819388;77;28098;-61
2021/11/11 02:05:05;;;;;;;20.23;9.63;;;;;;;1.29;62.40;142588.39;1835035;77;22551;-63
2021/11/11 02:07:49;;;;;;;17.57;8.88;;;;;;;1.29;62.32;142588.39;1834170;77;22582;-61
2021/11/11 02:10:26;;;;;;;17.80;9.45;;;;;;;1.26;62.35;142580.92;1834992;77;22164;-62
2021/11/11 02:13:05;;;;;;;18.07;10.10;;;;;;;1.26;62.36;142580.92;1835004;77;22124;-63
2021/11/11 02:15:40;;;;;;;19.82;9.05;;;;;;;1.22;62.50;142570.95;1834985;77;22202;-63
2021/11/11 02:18:15;;;;;;;18.07;8.50;;;;;;;1.21;62.56;142568.48;1834905;77;22539;-62
2021/11/11 02:21:17;;;;;;;20.05;9.88;;;;;;;1.17;62.76;142558.52;1834197;77;22172;-63
2021/11/11 02:23:53;;;;;;;19.42;9.58;;;;;;;1.15;62.76;142553.58;1834956;77;22535;-61
2021/11/11 02:26:28;;;;;;;19.55;10.30;;;;;;;1.12;62.96;142546.08;1835012;77;22128;-62
2021/11/11 02:29:24;;;;;;;15.98;8.80;;;;;;;1.07;63.23;142534.91;1834824;77;22209;-62
2021/11/11 02:32:00;;;;;;;17.42;10.32;;;;;;;1.03;63.31;142526.17;1819406;77;27988;-63
2021/11/11 02:34:35;;;;;;;17.20;9.43;;;;;;;1.04;63.45;142528.69;1835097;77;22128;-62
2021/11/11 02:37:10;;;;;;;17.32;8.40;;;;;;;1.02;63.48;142523.70;1834998;77;22136;-61
2021/11/11 02:39:45;;;;;;;17.27;8.98;;;;;;;1.00;63.57;142518.72;1853518;77;22128;-62
2021/11/11 02:42:27;;;;;;;21.10;10.15;;;;;;;0.96;63.79;142508.75;1834141;77;22172;-64
2021/11/11 02:45:14;;;;;;;20.05;9.55;;;;;;;0.93;63.83;142501.30;1853576;77;22237;-64
2021/11/11 02:47:51;;;;;;;21.23;9.88;;;;;;;0.89;64.05;142490.09;1853550;77;22229;-62
2021/11/11 02:50:49;;;;;;;20.25;9.58;;;;;;;0.85;64.14;142481.41;1853496;77;22139;-63
2021/11/11 02:53:43;;;;;;;18.70;9.43;;;;;;;0.84;64.28;142478.89;1853565;77;22128;-62
2021/11/11 02:56:18;;;;;;;20.77;9.83;;;;;;;0.80;64.40;142470.19;1835057;77;22165;-60
2021/11/11 02:58:54;;;;;;;15.83;8.73;;;;;;;0.76;64.57;142459.00;1834808;77;22155;-59
2021/11/11 03:01:29;;;;;;;17.82;9.55;;;;;;;0.72;64.74;142449.08;1835004;77;22551;-60
2021/11/11 03:04:04;;;;;;;19.95;9.00;;;;;;;0.69;64.82;142442.86;1834995;77;22212;-61
2021/11/11 03:06:40;;;;;;;19.23;9.83;;;;;;;0.67;64.89;142436.64;1853576;77;22131;-61
2021/11/11 03:09:17;;;;;;;19.95;9.68;;;;;;;0.67;64.93;142436.64;1835007;77;22117;-61
2021/11/11 03:11:55;;;;;;;18.75;8.60;;;;;;;0.64;64.88;142430.42;1835016;77;22152;-61
2021/11/11 03:14:52;;;;;;;15.25;8.20;;;;;;;0.60;64.93;142421.69;1853501;77;22200;-62
2021/11/11 03:17:52;;;;;;;18.52;8.15;;;;;;;0.58;64.91;142416.70;1834138;77;22172;-65
2021/11/11 03:20:53;;;;;;;18.67;9.23;;;;;;;0.57;65.12;142413.00;1834146;77;22605;-62
2021/11/11 03:23:46;;;;;;;15.55;7.85;;;;;;;0.55;65.05;142408.02;1834184;77;22120;-65
2021/11/11 03:26:41;;;;;;;15.58;8.75;;;;;;;0.53;65.19;142404.27;1853487;77;22158;-62
2021/11/11 03:29:16;;;;;;;16.42;9.30;;;;;;;0.51;65.23;142399.33;1819460;77;28018;-61
2021/11/11 03:31:51;;;;;;;14.85;9.55;;;;;;;0.53;65.23;142403.03;1819382;77;27999;-62
2021/11/11 03:34:27;;;;;;;14.60;8.13;;;;;;;0.59;65.10;142419.22;1833679;77;22164;-62
2021/11/11 03:37:03;;;;;;;16.00;9.15;;;;;;;0.56;65.03;142411.77;1834837;77;22191;-61
2021/11/11 03:39:58;;;;;;;16.95;9.38;;;;;;;0.55;64.96;142408.02;1819294;77;38292;-61
2021/11/11 03:42:33;;;;;;;23.70;9.45;;;;;;;0.58;64.58;142416.70;1834945;77;22137;-63
2021/11/11 03:45:09;;;;;;;16.45;7.83;;;;;;;0.56;64.58;142411.77;1834929;77;22136;-63
2021/11/11 03:47:47;;;;;;;16.82;8.93;;;;;;;0.54;64.64;142405.55;1834782;77;22594;-62
2021/11/11 03:50:22;;;;;;;18.32;8.83;;;;;;;0.50;64.64;142396.81;1834915;77;22594;-62
2021/11/11 03:52:58;;;;;;;17.52;9.28;;;;;;;0.50;64.60;142395.58;1837781;77;28026;-62
2021/11/11 03:55:33;;;;;;;14.63;8.78;;;;;;;0.54;64.46;142406.78;1832440;77;28437;-62
2021/11/11 03:58:14;;;;;;;14.63;8.05;;;;;;;0.60;64.44;142421.69;1835023;77;22566;-63
2021/11/11 04:00:46;;;;;;;16.80;8.55;;;;;;;0.56;64.34;142411.77;1853428;77;22170;-62
2021/11/11 04:03:41;;;;;;;16.27;9.05;;;;;;;0.55;64.25;142409.25;1837664;77;28482;-61
2021/11/11 04:06:18;;;;;;;12.70;7.30;;;;;;;0.59;64.35;142419.22;1834763;77;22188;-62
2021/11/11 04:08:54;;;;;;;16.93;7.90;;;;;;;0.55;64.33;142408.02;1834896;77;22211;-63
2021/11/11 04:11:31;;;;;;;14.47;9.15;;;;;;;0.51;64.46;142399.33;1818826;77;28081;-61
2021/11/11 04:14:12;;;;;;;15.68;8.80;;;;;;;0.54;64.62;142406.78;1834158;77;22243;-61
2021/11/11 04:17:08;;;;;;;16.50;8.93;;;;;;;0.52;64.75;142401.80;1827359;77;22204;-63
2021/11/11 04:19:43;;;;;;;20.45;9.73;;;;;;;0.48;64.89;142391.83;1848163;77;22678;-62
2021/11/11 04:22:19;;;;;;;14.55;8.38;;;;;;;0.44;65.15;142381.91;1853120;77;22187;-61
2021/11/11 04:25:03;;;;;;;15.32;8.15;;;;;;;0.41;65.29;142374.47;1853895;77;22221;-62
2021/11/11 04:30:30;;;;;;;18.35;8.25;;;;;;;0.31;65.72;142350.83;1853484;77;22144;-63
2021/11/11 04:33:22;;;;;;;17.85;8.83;;;;;;;0.28;65.94;142342.09;1834222;77;22181;-62
2021/11/11 04:36:07;;;;;;;17.07;8.95;;;;;;;0.26;66.15;142337.16;1853511;77;22155;-61
2021/11/11 04:44:32;;;;;;;19.98;8.63;;;;;;;0.17;66.43;142316.00;1835016;77;22555;-62
2021/11/11 04:50:13;;;;;;;17.67;8.38;;;;;;;0.17;66.57;142316.00;1834339;77;22136;-62
2021/11/11 05:01:32;;;;;;;20.08;9.68;;;;;;;0.12;67.00;142304.81;1835042;77;22218;-62
2021/11/11 05:04:04;;;;;;;20.30;9.63;;;;;;;0.13;67.13;142306.09;1834996;77;22124;-62
2021/11/11 05:06:46;;;;;;;20.35;9.40;;;;;;;0.13;67.19;142307.31;1834099;77;22128;-62
2021/11/11 05:09:46;;;;;;;17.62;8.90;;;;;;;0.16;67.15;142314.77;1834958;77;22136;-61
2021/11/11 05:12:21;;;;;;;16.60;9.00;;;;;;;0.17;67.24;142317.23;1835043;77;22128;-61
2021/11/11 05:14:56;;;;;;;18.80;8.83;;;;;;;0.39;67.07;142369.47;1835033;77;22124;-61
2021/11/11 05:17:54;;;;;;;21.37;9.68;;;;;;;0.88;66.03;142488.86;1832494;77;22227;-63
2021/11/11 05:20:52;;;;;;;20.30;9.63;;;;;;;1.46;64.56;142629.47;1853629;77;22135;-61
2021/11/11 05:23:27;;;;;;;17.65;9.43;;;;;;;1.98;63.10;142755.19;1835014;77;22132;-61
2021/11/11 05:26:08;;;;;;;19.30;9.48;;;;;;;2.55;61.41;142894.70;1853505;77;22611;-61
2021/11/11 05:29:04;;;;;;;19.48;10.55;;;;;;;3.11;58.93;143031.77;1819402;77;27999;-62
2021/11/11 05:31:59;;;;;;;19.77;10.40;;;;;;;3.65;57.63;143163.91;1834993;77;22124;-61
2021/11/11 05:34:34;;;;;;;15.90;10.10;;;;;;;4.25;55.55;143308.56;1853537;77;22123;-62
2021/11/11 05:37:12;;;;;;;18.87;11.10;;;;;;;4.74;54.28;143429.64;1819312;77;28037;-63
2021/11/11 05:39:46;;;;;;;26.55;10.13;;;;;;;5.14;52.68;143525.75;1834983;77;22148;-61
2021/11/11 05:42:43;;;;;;;19.32;11.12;;;;;;;5.58;51.56;143634.42;1819395;77;28410;-63
2021/11/11 05:45:19;;;;;;;21.42;11.25;;;;;;;6.07;49.93;143753.14;1834839;77;22124;-62
2021/11/11 05:47:55;;;;;;;19.17;10.20;;;;;;;6.42;48.44;143838.14;1834954;77;22156;-62
2021/11/11 05:50:31;;;;;;;19.57;9.05;;;;;;;6.88;47.70;143950.66;1834877;77;20104;-63
2021/11/11 05:53:12;;;;;;;20.25;8.98;;;;;;;7.06;46.66;143995.66;1834166;77;22172;-62
2021/11/11 05:55:47;;;;;;;16.35;9.03;;;;;;;7.37;45.41;144070.70;1835018;77;22133;-62
2021/11/11 05:58:22;;;;;;;18.27;10.75;;;;;;;7.31;45.41;144055.72;1834986;77;22121;-63
2021/11/11 06:01:04;;;;;;;19.87;9.00;;;;;;;7.64;45.09;144135.78;1834178;77;22168;-63
2021/11/11 06:04:00;;;;;;;15.72;9.10;;;;;;;8.07;43.80;144242.16;1835017;77;20099;-63
2021/11/11 06:06:35;;;;;;;22.27;11.12;;;;;;;8.46;43.17;144337.34;1834957;77;22543;-62
2021/11/11 06:09:29;;;;;;;18.98;10.25;;;;;;;8.90;42.26;144446.31;1835003;77;22132;-62
2021/11/11 06:12:10;;;;;;;18.32;11.55;;;;;;;9.52;41.34;144597.89;1834187;77;22128;-62
2021/11/11 06:15:06;;;;;;;17.05;10.72;;;;;;;10.06;39.57;144729.50;1834981;77;22152;-63
2021/11/11 06:18:02;;;;;;;18.20;9.65;;;;;;;10.19;39.82;144760.84;1834818;77;22165;-63
2021/11/11 06:20:59;;;;;;;16.95;10.48;;;;;;;10.76;38.65;144900.08;1834962;77;22124;-62
2021/11/11 06:23:35;;;;;;;19.98;10.65;;;;;;;11.29;37.12;145030.56;1834995;77;22163;-62
2021/11/11 06:26:10;;;;;;;21.87;10.65;;;;;;;11.27;36.84;145026.83;1834992;77;22559;-61
2021/11/11 06:28:44;;;;;;;20.72;10.25;;;;;;;10.16;37.78;144753.33;1834979;77;22160;-63
2021/11/11 06:31:21;;;;;;;19.55;11.55;;;;;;;9.19;39.66;144516.45;1834783;77;22578;-62
2021/11/11 06:34:02;;;;;;;19.70;9.60;;;;;;;8.96;40.43;144458.83;1853559;77;22193;-62
2021/11/11 06:36:56;;;;;;;20.27;10.13;;;;;;;8.50;41.13;144346.08;1853560;77;22151;-62
2021/11/11 06:39:52;;;;;;;18.65;9.90;;;;;;;8.65;41.24;144384.94;1853613;77;22151;-63
2021/11/11 06:42:45;;;;;;;23.20;10.13;;;;;;;9.80;39.20;144664.33;1835055;77;22124;-62
2021/11/11 06:45:42;;;;;;;18.42;9.30;;;;;;;10.61;37.65;144863.75;1835161;77;22568;-63
2021/11/11 06:48:16;;;;;;;18.70;9.85;;;;;;;10.96;36.58;144950.25;1853592;77;22124;-62
2021/11/11 06:50:52;;;;;;;19.17;10.60;;;;;;;11.45;36.04;145070.75;1835062;77;22583;-63
2021/11/11 06:53:33;;;;;;;19.32;10.90;;;;;;;11.93;35.43;145188.81;1853588;77;22159;-62
2021/11/11 06:56:27;;;;;;;18.62;10.32;;;;;;;12.43;34.15;145309.36;1853498;77;22132;-62
2021/11/11 06:59:04;;;;;;;20.77;11.60;;;;;;;12.64;33.15;145360.84;1819303;77;28052;-62
2021/11/11 07:01:39;;;;;;;18.37;10.72;;;;;;;12.91;33.42;145427.47;1834942;77;22181;-62
2021/11/11 07:04:14;;;;;;;19.70;11.75;;;;;;;13.43;32.47;145555.69;1834945;77;22202;-63
2021/11/11 07:06:50;;;;;;;19.37;11.80;;;;;;;13.86;31.74;145661.30;1834967;77;22132;-65
2021/11/11 07:09:31;;;;;;;20.68;12.53;;;;;;;14.51;30.82;145821.06;1834144;77;22186;-66
2021/11/11 07:12:26;;;;;;;18.48;10.43;;;;;;;14.92;29.78;145923.02;1832095;77;23532;-63
2021/11/11 07:15:21;;;;;;;25.70;10.03;;;;;;;15.21;29.73;145993.48;1819937;77;22175;-64
2021/11/11 07:18:16;;;;;;;23.70;12.63;;;;;;;15.39;29.25;146037.55;1821262;77;22163;-64
2021/11/11 07:20:53;;;;;;;21.02;11.28;;;;;;;15.28;28.93;146009.88;1876589;74;27933;-63
2021/11/11 07:23:28;;;;;;;23.32;11.40;;;;;;;15.17;28.79;145983.44;1853360;77;22136;-65
2021/11/11 07:26:03;;;;;;;21.93;9.73;;;;;;;15.12;28.61;145970.86;1815510;77;22128;-66
2021/11/11 07:28:39;;;;;;;22.00;11.12;;;;;;;14.85;28.88;145905.39;1820128;77;22140;-66
2021/11/11 07:31:33;;;;;;;16.45;9.60;;;;;;;15.19;28.63;145988.48;1821851;77;22144;-65
2021/11/11 07:34:07;;;;;;;13.80;9.23;;;;;;;15.57;28.27;146081.61;1817777;77;22612;-65
2021/11/11 07:36:44;;;;;;;15.95;9.55;;;;;;;15.83;27.43;146145.91;1805356;77;28305;-65
2021/11/11 07:39:38;;;;;;;15.88;8.75;;;;;;;15.58;27.58;146085.41;1853586;77;22558;-64
2021/11/11 07:42:40;;;;;;;13.58;8.20;;;;;;;15.40;27.96;146041.34;1834129;77;22156;-68
2021/11/11 07:45:18;;;;;;;13.35;8.43;;;;;;;15.62;27.64;146094.20;1835107;77;22129;-62
2021/11/11 07:48:11;;;;;;;13.85;7.83;;;;;;;15.55;27.21;146076.61;1834986;77;22164;-65
2021/11/11 07:50:46;;;;;;;17.12;7.80;;;;;;;15.50;27.81;146064.03;1853564;77;22123;-64
2021/11/11 07:53:23;;;;;;;14.43;7.22;;;;;;;15.56;27.59;146079.11;1834859;77;22178;-65
2021/11/11 07:56:05;;;;;;;12.68;7.42;;;;;;;15.63;27.75;146096.75;1853555;77;22216;-65
2021/11/11 07:58:46;;;;;;;19.65;8.48;;;;;;;15.58;27.32;146085.41;1834195;77;22602;-64
2021/11/11 08:01:27;;;;;;;14.13;8.15;;;;;;;15.26;27.99;146004.83;1833087;77;22188;-65
2021/11/11 08:04:08;;;;;;;13.50;7.58;;;;;;;14.90;28.12;145917.97;1811772;77;22199;-63
2021/11/11 08:06:49;;;;;;;11.08;7.33;;;;;;;14.61;28.81;145845.02;1806633;77;22635;-65
2021/11/11 08:09:24;;;;;;;14.80;6.95;;;;;;;14.46;28.84;145808.47;1826929;77;22156;-63
2021/11/11 08:11:59;;;;;;;15.55;9.08;;;;;;;14.15;29.40;145731.75;1834914;77;22156;-63
2021/11/11 08:14:34;;;;;;;15.60;8.30;;;;;;;13.76;30.05;145637.39;1853467;77;22132;-65
2021/11/11 08:17:11;;;;;;;13.53;7.85;;;;;;;13.43;30.60;145555.69;1813874;77;22220;-65
2021/11/11 08:19:47;;;;;;;12.88;7.65;;;;;;;13.11;31.14;145477.72;1819377;77;28013;-61
2021/11/11 08:22:25;;;;;;;10.68;6.40;;;;;;;12.91;31.48;145427.47;1853629;77;20214;-64
2021/11/11 08:25:26;;;;;;;14.43;7.30;;;;;;;12.42;32.15;145308.11;1843120;77;22167;-61
2021/11/11 08:28:03;;;;;;;14.58;8.38;;;;;;;11.97;32.91;145196.34;1834640;77;22627;-63
2021/11/11 08:30:57;;;;;;;12.23;7.20;;;;;;;11.63;33.54;145113.44;1834684;77;22171;-63
2021/11/11 08:33:39;;;;;;;16.95;8.35;;;;;;;11.42;33.94;145063.23;1800149;79;22163;-62
2021/11/11 08:36:40;;;;;;;19.00;7.30;;;;;;;11.12;34.42;144987.91;1834176;77;22184;-62
2021/11/11 08:39:21;;;;;;;19.95;7.25;;;;;;;10.74;34.80;144895.09;1834067;77;22172;-62
2021/11/11 08:42:16;;;;;;;14.55;7.55;;;;;;;10.20;35.64;144763.33;1852909;77;22211;-63
2021/11/11 08:45:17;;;;;;;16.67;7.80;;;;;;;9.84;36.40;144674.33;1834127;77;22602;-62
2021/11/11 08:48:19;;;;;;;14.38;6.87;;;;;;;9.63;36.92;144624.19;1853541;77;22176;-63
2021/11/11 08:51:13;;;;;;;13.18;7.62;;;;;;;9.38;37.23;144562.78;1834958;77;22626;-63
2021/11/11 08:54:07;;;;;;;12.03;6.95;;;;;;;9.11;37.86;144496.41;1834992;77;22153;-61
2021/11/11 08:56:48;;;;;;;15.38;7.53;;;;;;;8.87;37.90;144437.52;1819367;77;28016;-61
2021/11/11 08:59:39;;;;;;;14.65;7.85;;;;;;;8.65;38.33;144383.64;1834945;77;22152;-63
2021/11/11 09:02:34;;;;;;;16.62;9.03;;;;;;;8.40;38.98;144322.33;1834936;77;22140;-61
2021/11/11 09:05:31;;;;;;;15.00;8.03;;;;;;;8.14;39.61;144259.69;1835006;77;22201;-61
2021/11/11 09:08:08;;;;;;;16.00;7.95;;;;;;;7.83;40.18;144183.31;1853398;77;22565;-62
2021/11/11 09:10:46;;;;;;;16.70;9.23;;;;;;;7.57;40.66;144120.75;1825869;77;22175;-62
2021/11/11 09:13:46;;;;;;;18.80;8.38;;;;;;;7.32;41.15;144059.44;1832406;77;22128;-65
2021/11/11 09:16:23;;;;;;;15.70;9.48;;;;;;;7.10;41.40;144004.45;1848134;77;22756;-62
2021/11/11 09:19:23;;;;;;;22.13;9.00;;;;;;;6.92;42.30;143961.92;1809558;77;22637;-63
2021/11/11 09:21:58;;;;;;;16.65;8.18;;;;;;;6.79;42.38;143928.13;1834762;77;22157;-64
2021/11/11 09:24:33;;;;;;;16.30;7.60;;;;;;;6.66;42.35;143898.13;1837843;77;28080;-65
2021/11/11 09:27:08;;;;;;;15.50;8.43;;;;;;;6.64;42.70;143893.16;1853688;77;22167;-69
2021/11/11 09:29:45;;;;;;;17.42;7.65;;;;;;;6.61;43.10;143885.61;1853604;77;22589;-58
2021/11/11 09:32:20;;;;;;;18.60;8.50;;;;;;;6.62;43.18;143888.14;1853565;77;22159;-60
2021/11/11 09:34:56;;;;;;;16.80;8.68;;;;;;;6.65;43.35;143895.63;1834505;77;22209;-62
2021/11/11 09:37:58;;;;;;;15.00;8.65;;;;;;;6.71;43.48;143910.62;1834045;77;22249;-62
2021/11/11 09:40:39;;;;;;;16.42;7.58;;;;;;;6.77;43.44;143923.13;1853384;77;22187;-60
2021/11/11 09:43:14;;;;;;;11.15;6.30;;;;;;;6.82;43.17;143935.63;1853447;77;22573;-58
2021/11/11 09:46:29;;;;;;;12.03;6.30;;;;;;;6.72;43.03;143913.16;1826959;77;23488;-61
2021/11/11 09:49:23;;;;;;;16.95;7.92;;;;;;;6.60;43.35;143881.89;1853489;77;22140;-64
2021/11/11 09:52:18;;;;;;;14.28;7.60;;;;;;;6.64;43.31;143893.16;1835029;77;22157;-60
2021/11/11 10:01:20;;;;;;;20.97;10.05;;;;;;;7.01;41.93;143983.16;1853452;77;22131;-60
2021/11/11 10:04:13;;;;;;;26.68;12.85;;;;;;;7.08;41.57;143999.44;1853492;77;22128;-62
2021/11/11 10:07:07;;;;;;;18.60;9.23;;;;;;;7.19;41.21;144026.94;1834764;77;22242;-63
2021/11/11 10:10:03;;;;;;;14.95;7.62;;;;;;;7.27;41.17;144045.69;1811349;77;22256;-60
2021/11/11 10:12:38;;;;;;;15.95;8.35;;;;;;;7.30;41.42;144053.19;1853491;77;22155;-59
2021/11/11 10:15:33;;;;;;;20.72;9.18;;;;;;;7.34;41.36;144063.22;1837937;77;28427;-59
2021/11/11 10:18:51;;;;;;;18.50;7.53;;;;;;;7.47;41.36;144095.72;1834625;77;22239;-61
2021/11/11 10:24:49;;;;;;;12.93;6.67;;;;;;;7.66;40.56;144140.75;1835062;77;22132;-61
2021/11/11 10:27:42;;;;;;;12.15;6.20;;;;;;;7.87;40.55;144193.34;1834963;77;22616;-60
2021/11/11 10:30:28;;;;;;;16.07;7.25;;;;;;;7.97;40.35;144218.38;1853505;77;22127;-67
2021/11/11 10:33:22;;;;;;;16.62;7.42;;;;;;;7.96;40.47;144215.89;1823465;77;22144;-60
2021/11/11 10:36:38;;;;;;;16.35;7.22;;;;;;;7.99;40.54;144223.38;1816733;77;22166;-58
2021/11/11 10:39:27;;;;;;;16.57;7.35;;;;;;;8.13;40.43;144257.16;1818226;77;22196;-61
2021/11/11 10:42:25;;;;;;;21.52;7.90;;;;;;;8.36;39.99;144313.48;1814870;77;22199;-58
2021/11/11 10:45:23;;;;;;;20.27;8.05;;;;;;;8.52;39.91;144351.09;1834730;77;22136;-62
2021/11/11 10:48:26;;;;;;;16.23;7.75;;;;;;;8.57;39.75;144363.63;1834033;77;22630;-61
2021/11/11 10:51:27;;;;;;;12.37;6.25;;;;;;;8.54;39.75;144356.13;1811417;77;22215;-60
2021/11/11 10:54:21;;;;;;;13.48;7.65;;;;;;;8.43;39.95;144331.08;1817066;77;22187;-60
2021/11/11 10:57:20;;;;;;;20.30;7.85;;;;;;;8.33;40.16;144305.98;1831954;77;22148;-60
2021/11/11 11:00:28;;;;;;;13.15;6.67;;;;;;;8.31;40.28;144299.73;1810746;77;22275;-60
2021/11/11 11:03:42;;;;;;;18.37;8.55;;;;;;;8.24;40.54;144283.44;1797802;77;28119;-63
2021/11/11 11:06:27;;;;;;;17.20;9.25;;;;;;;8.28;40.66;144293.47;1825597;77;22562;-60
2021/11/11 11:09:19;;;;;;;14.38;7.45;;;;;;;8.34;40.70;144308.47;1817682;77;22239;-61
2021/11/11 11:12:01;;;;;;;14.35;6.67;;;;;;;8.41;40.35;144326.06;1815242;77;22204;-57
2021/11/11 11:15:38;;;;;;;18.02;7.10;;;;;;;8.50;40.14;144347.38;1814507;77;22638;-59
2021/11/11 11:18:25;;;;;;;12.25;7.05;;;;;;;8.61;40.08;144374.89;1818513;77;22245;-63
2021/11/11 11:21:08;;;;;;;15.23;7.80;;;;;;;8.65;40.20;144384.94;1815544;77;22238;-58
2021/11/11 11:24:06;;;;;;;17.90;8.15;;;;;;;8.75;40.14;144407.45;1853422;77;22131;-57
2021/11/11 11:26:54;;;;;;;15.65;7.12;;;;;;;8.77;40.10;144413.70;1839527;77;22195;-58
2021/11/11 11:32:32;;;;;;;16.87;8.55;;;;;;;8.83;40.10;144428.77;1813987;77;22672;-61
2021/11/11 11:35:26;;;;;;;16.02;8.25;;;;;;;8.80;40.25;144421.25;1815716;77;22152;-60
2021/11/11 11:38:01;;;;;;;17.40;8.25;;;;;;;8.79;40.28;144418.72;1830324;77;22194;-61
2021/11/11 11:40:37;;;;;;;15.95;8.25;;;;;;;8.72;40.39;144401.19;1802869;77;28240;-55
2021/11/11 11:43:25;;;;;;;16.27;8.10;;;;;;;8.73;40.44;144402.42;1820212;77;22164;-61
2021/11/11 11:46:25;;;;;;;17.50;7.15;;;;;;;8.71;40.63;144398.70;1834836;77;22187;-56
2021/11/11 11:49:21;;;;;;;14.43;8.00;;;;;;;8.72;40.74;144401.19;1834918;77;22159;-61
2021/11/11 11:51:56;;;;;;;16.73;7.60;;;;;;;8.70;40.82;144396.17;1834685;77;22161;-61
2021/11/11 11:58:02;;;;;;;14.23;7.00;;;;;;;8.66;41.08;144386.17;1853576;77;22164;-60
2021/11/11 12:06:54;;;;;;;18.60;9.25;;;;;;;8.62;41.39;144376.14;1831761;77;22244;-58
2021/11/11 12:09:31;;;;;;;16.37;8.30;;;;;;;8.70;41.43;144396.17;1834940;77;22137;-62
2021/11/11 12:15:21;;;;;;;14.05;7.50;;;;;;;8.80;41.40;144419.97;1853582;77;22574;-60
2021/11/11 12:38:35;;;;;;;19.80;8.38;;;;;;;9.45;41.19;144579.09;1853470;77;22614;-63
2021/11/11 12:41:27;;;;;;;13.35;6.92;;;;;;;9.31;41.43;144546.53;1834008;77;22168;-63
2021/11/11 12:44:23;;;;;;;13.08;7.12;;;;;;;9.25;41.52;144531.47;1834811;77;22241;-61
2021/11/11 12:46:59;;;;;;;17.75;8.20;;;;;;;9.19;41.62;144515.20;1831667;77;22217;-63
2021/11/11 12:49:37;;;;;;;14.85;7.40;;;;;;;9.16;41.84;144508.94;1836533;77;22146;-58
2021/11/11 12:52:21;;;;;;;24.52;9.03;;;;;;;9.09;42.19;144491.39;1805859;77;28015;-65
2021/11/11 12:55:18;;;;;;;16.85;9.35;;;;;;;9.06;42.14;144483.88;1806892;77;22606;-64
2021/11/11 12:58:19;;;;;;;18.60;8.80;;;;;;;9.00;42.37;144468.83;1834916;77;22582;-63
2021/11/11 13:01:23;;;;;;;21.70;10.10;;;;;;;8.97;42.45;144461.31;1825009;77;22216;-62
2021/11/11 13:04:12;;;;;;;20.65;9.73;;;;;;;8.95;42.57;144457.55;1851425;77;22203;-63
2021/11/11 13:07:13;;;;;;;19.67;9.55;;;;;;;8.95;42.72;144456.30;1834816;77;22136;-62
2021/11/11 13:10:20;;;;;;;22.02;10.15;;;;;;;8.91;42.83;144448.80;1834048;77;22184;-63
2021/11/11 13:13:12;;;;;;;21.27;9.88;;;;;;;8.87;42.84;144438.75;1853275;77;22226;-61
2021/11/11 13:15:47;;;;;;;21.37;9.75;;;;;;;8.84;43.02;144431.25;1853434;77;22159;-60
2021/11/11 13:18:48;;;;;;;20.80;11.38;;;;;;;8.80;43.08;144419.97;1830441;77;22162;-66
2021/11/11 15:04:38;;;;;;;19.10;10.98;;;;;;;7.86;45.42;144190.86;1853548;77;22127;-64
2021/11/11 15:13:55;;;;;;;31.23;14.83;;;;;;;7.11;47.36;144008.17;1834936;77;22156;-62
2021/11/11 16:02:07;;;;;;;30.05;14.53;;;;;;;6.65;48.37;143895.63;1834640;77;22156;-60
2021/11/11 16:22:31;;;;;;;24.63;14.25;;;;;;;6.38;49.21;143828.13;1834834;77;22160;-61
2021/11/11 16:25:10;;;;;;;23.38;13.45;;;;;;;6.36;49.39;143823.11;1846614;77;22152;-62
2021/11/11 16:28:02;;;;;;;25.52;14.03;;;;;;;6.32;49.46;143813.16;1833947;77;22172;-61
2021/11/11 16:30:58;;;;;;;25.68;12.90;;;;;;;6.27;49.64;143803.13;1834773;77;20167;-61
2021/11/11 16:33:35;;;;;;;24.20;12.98;;;;;;;6.25;49.76;143798.13;1834674;77;22221;-62
2021/11/11 16:36:11;;;;;;;24.95;13.35;;;;;;;6.24;49.83;143795.64;1819444;77;28018;-63
2021/11/11 16:39:06;;;;;;;27.27;12.90;;;;;;;6.27;49.81;143803.13;1853524;77;22197;-62
2021/11/11 16:41:41;;;;;;;23.40;12.33;;;;;;;6.23;49.92;143793.16;1853555;77;22558;-62